createdAt,value
2023-08-03T00:01:10.741Z,94952.02
2023-08-03T00:03:38.964Z,94960.20
2023-08-03T00:06:07.147Z,94960.41
2023-08-03T00:08:35.142Z,94958.63
2023-08-03T00:11:03.414Z,94958.19
2023-08-03T00:13:31.336Z,94963.91
2023-08-03T00:15:59.658Z,94965.66
2023-08-03T00:18:27.598Z,94959.42
2023-08-03T00:20:55.553Z,94958.30
2023-08-03T00:23:23.566Z,94954.34
2023-08-03T00:25:51.494Z,94950.95
2023-08-03T00:28:22.351Z,94957.71
2023-08-03T00:30:50.433Z,94955.96
2023-08-03T00:33:18.464Z,94959.46
2023-08-03T00:35:46.445Z,94956.67
2023-08-03T00:38:14.537Z,94956.96
2023-08-03T00:40:42.814Z,94957.65
2023-08-03T00:43:10.926Z,94957.70
2023-08-03T00:45:38.966Z,94955.14
2023-08-03T00:48:07.024Z,94955.55
2023-08-03T00:50:35.069Z,94957.86
2023-08-03T00:53:02.995Z,94967.34
2023-08-03T00:55:30.941Z,94970.46
2023-08-03T00:57:59.963Z,94972.26
2023-08-03T01:00:28.063Z,94982.72
2023-08-03T01:02:56.171Z,94983.95
2023-08-03T01:05:27.095Z,94982.80
2023-08-03T01:07:56.359Z,94977.50
2023-08-03T01:10:24.838Z,94968.90
2023-08-03T01:12:52.961Z,94966.39
2023-08-03T01:15:20.986Z,94969.06
2023-08-03T01:17:49.002Z,94969.43
2023-08-03T01:20:19.824Z,94972.35
2023-08-03T01:22:48.467Z,94971.36
2023-08-03T01:25:16.648Z,94969.43
2023-08-03T01:27:48.543Z,94971.36
2023-08-03T01:30:16.540Z,94972.19
2023-08-03T01:32:44.588Z,94969.92
2023-08-03T01:35:13.845Z,94967.58
2023-08-03T01:37:41.929Z,94964.20
2023-08-03T01:40:13.561Z,94957.27
2023-08-03T01:42:41.585Z,94950.30
2023-08-03T01:45:10.101Z,94950.17
2023-08-03T01:47:38.326Z,94953.09
2023-08-03T01:50:06.787Z,94949.80
2023-08-03T01:52:36.424Z,94941.39
2023-08-03T01:55:04.764Z,94932.88
2023-08-03T01:57:33.242Z,94933.33
2023-08-03T02:00:01.906Z,94930.70
2023-08-03T02:02:29.937Z,94935.15
2023-08-03T02:04:58.004Z,94940.23
2023-08-03T02:07:56.642Z,94947.77
2023-08-03T02:10:25.859Z,94951.34
2023-08-03T02:12:53.989Z,94956.69
2023-08-03T02:15:22.447Z,94961.81
2023-08-03T02:17:50.666Z,94965.51
2023-08-03T02:20:19.294Z,94963.60
2023-08-03T02:22:47.329Z,94965.35
2023-08-03T02:25:17.001Z,94961.29
2023-08-03T02:27:45.122Z,94967.25
2023-08-03T02:30:13.089Z,94969.88
2023-08-03T02:32:41.588Z,94979.58
2023-08-03T02:35:10.199Z,94981.11
2023-08-03T02:37:38.781Z,94984.23
2023-08-03T02:40:10.132Z,94983.46
2023-08-03T02:42:38.763Z,94993.81
2023-08-03T02:45:08.206Z,94999.23
2023-08-03T02:47:36.286Z,95009.42
2023-08-03T02:50:05.488Z,95012.98
2023-08-03T02:52:33.401Z,95021.06
2023-08-03T02:55:01.434Z,95032.51
2023-08-03T02:57:29.375Z,95038.15
2023-08-03T02:59:57.375Z,95041.48
2023-08-03T03:02:25.613Z,95049.20
2023-08-03T03:04:54.459Z,95050.61
2023-08-03T03:07:24.501Z,95053.66
2023-08-03T03:09:53.026Z,95056.78
2023-08-03T03:12:21.249Z,95059.63
2023-08-03T03:14:49.436Z,95069.98
2023-08-03T03:17:17.407Z,95071.92
2023-08-03T03:19:45.869Z,95074.55
2023-08-03T03:22:14.933Z,95077.00
2023-08-03T03:24:43.256Z,95080.36
2023-08-03T03:27:11.218Z,95085.39
2023-08-03T03:29:44.526Z,95087.21
2023-08-03T03:32:12.778Z,95089.45
2023-08-03T03:34:40.754Z,95093.08
2023-08-03T03:37:09.727Z,95092.39
2023-08-03T03:39:39.189Z,95097.91
2023-08-03T03:42:07.565Z,95095.15
2023-08-03T03:44:36.175Z,95098.65
2023-08-03T03:47:04.855Z,95097.02
2023-08-03T03:49:34.234Z,95098.98
2023-08-03T03:52:03.897Z,95106.48
2023-08-03T03:54:32.621Z,95106.73
2023-08-03T03:57:02.014Z,95108.16
2023-08-03T03:59:31.474Z,95100.36
2023-08-03T04:02:00.687Z,95100.27
2023-08-03T04:04:32.217Z,95109.98
2023-08-03T04:07:00.813Z,95110.86
2023-08-03T04:09:30.081Z,95109.97
2023-08-03T04:11:58.985Z,95108.92
2023-08-03T04:14:28.398Z,95105.50
2023-08-03T04:16:56.536Z,95109.05
2023-08-03T04:19:26.956Z,95114.71
2023-08-03T04:21:55.092Z,95118.16
2023-08-03T04:24:23.061Z,95124.33
2023-08-03T04:26:51.618Z,95126.55
2023-08-03T04:29:23.241Z,95114.62
2023-08-03T04:31:52.410Z,95104.98
2023-08-03T04:34:20.817Z,95111.13
2023-08-03T04:36:49.389Z,95111.81
2023-08-03T04:39:17.494Z,95107.52
2023-08-03T04:41:46.161Z,95103.66
2023-08-03T04:44:15.795Z,95100.19
2023-08-03T04:46:43.745Z,95095.68
2023-08-03T04:49:13.706Z,95095.92
2023-08-03T04:51:47.799Z,95097.15
2023-08-03T04:54:19.742Z,95099.63
2023-08-03T04:56:48.129Z,95099.23
2023-08-03T04:59:31.358Z,95098.17
2023-08-03T05:02:00.072Z,95097.68
2023-08-03T05:04:28.905Z,95097.61
2023-08-03T05:06:57.230Z,95101.41
2023-08-03T05:09:25.320Z,95100.61
2023-08-03T05:11:53.381Z,95099.31
2023-08-03T05:14:21.578Z,95095.13
2023-08-03T05:16:49.574Z,95099.69
2023-08-03T05:19:17.589Z,95098.59
2023-08-03T05:21:45.742Z,95095.79
2023-08-03T05:24:13.892Z,95095.69
2023-08-03T05:26:41.901Z,95097.95
2023-08-03T05:29:10.181Z,95110.69
2023-08-03T05:31:38.703Z,95118.61
2023-08-03T05:34:06.759Z,95116.16
2023-08-03T05:36:35.084Z,95113.52
2023-08-03T05:39:03.112Z,95118.30
2023-08-03T05:41:31.177Z,95114.52
2023-08-03T05:43:59.134Z,95117.11
2023-08-03T05:46:33.482Z,95121.19
2023-08-03T05:49:01.982Z,95119.31
2023-08-03T05:51:30.096Z,95123.54
2023-08-03T05:53:58.284Z,95123.78
2023-08-03T05:56:26.328Z,95125.61
2023-08-03T05:58:54.546Z,95133.26
2023-08-03T06:01:24.290Z,95138.09
2023-08-03T06:03:54.584Z,95141.59
2023-08-03T06:06:23.718Z,95144.19
2023-08-03T06:08:54.843Z,95148.45
2023-08-03T06:13:54.315Z,95151.86
2023-08-03T06:16:27.416Z,95151.34
2023-08-03T06:19:00.164Z,95149.80
2023-08-03T06:21:29.167Z,95149.86
2023-08-03T06:23:59.476Z,95150.38
2023-08-03T06:26:32.403Z,95150.44
2023-08-03T06:29:02.800Z,95156.31
2023-08-03T06:31:33.895Z,95157.87
2023-08-03T06:34:03.490Z,95157.25
2023-08-03T06:36:31.409Z,95160.09
2023-08-03T06:38:59.580Z,95161.02
2023-08-03T06:41:28.405Z,95174.25
2023-08-03T06:43:57.331Z,95186.10
2023-08-03T06:46:28.470Z,95181.84
2023-08-03T06:48:56.684Z,95181.39
2023-08-03T06:51:24.805Z,95181.52
2023-08-03T06:53:53.156Z,95185.13
2023-08-03T06:56:21.040Z,95181.63
2023-08-03T06:58:49.048Z,95180.17
2023-08-03T07:01:17.117Z,95186.79
2023-08-03T07:03:45.416Z,95184.84
2023-08-03T07:06:13.759Z,95183.58
2023-08-03T07:08:41.698Z,95193.08
2023-08-03T07:11:09.775Z,95204.92
2023-08-03T07:13:37.835Z,95206.63
2023-08-03T07:16:10.115Z,95204.30
2023-08-03T07:18:38.439Z,95210.02
2023-08-03T07:21:07.222Z,95214.91
2023-08-03T07:23:35.730Z,95219.98
2023-08-03T07:26:03.899Z,95221.35
2023-08-03T07:28:31.892Z,95229.98
2023-08-03T07:30:59.945Z,95235.95
2023-08-03T07:33:28.055Z,95247.45
2023-08-03T07:35:56.008Z,95250.80
2023-08-03T07:38:24.071Z,95253.33
2023-08-03T07:40:52.031Z,95253.55
2023-08-03T07:43:20.088Z,95260.87
2023-08-03T07:45:51.529Z,95266.72
2023-08-03T07:48:19.792Z,95279.19
2023-08-03T07:50:47.809Z,95289.11
2023-08-03T07:53:15.777Z,95287.35
2023-08-03T07:55:43.741Z,95298.11
2023-08-03T07:58:14.393Z,95294.86
2023-08-03T08:00:42.383Z,95299.45
2023-08-03T08:03:10.448Z,95301.35
2023-08-03T08:05:38.478Z,95301.89
2023-08-03T08:08:06.473Z,95311.89
2023-08-03T08:10:34.458Z,95310.27
2023-08-03T08:13:02.401Z,95301.67
2023-08-03T08:15:30.664Z,95302.37
2023-08-03T08:18:58.970Z,95300.91
2023-08-03T08:21:27.104Z,95293.94
2023-08-03T08:23:55.058Z,95288.84
2023-08-03T08:26:23.120Z,95285.90
2023-08-03T08:29:03.256Z,95278.65
2023-08-03T08:31:52.908Z,95271.90
2023-08-03T08:34:21.572Z,95268.38
2023-08-03T08:36:52.816Z,95274.85
2023-08-03T08:39:21.491Z,95283.23
2023-08-03T08:41:50.134Z,95281.09
2023-08-03T08:44:18.179Z,95290.55
2023-08-03T08:46:46.349Z,95288.81
2023-08-03T08:54:20.246Z,95302.24
2023-08-03T09:01:52.906Z,95339.31
2023-08-03T09:04:36.182Z,95330.28
2023-08-03T09:07:05.405Z,95324.66
2023-08-03T09:09:35.535Z,95334.53
2023-08-03T09:12:04.260Z,95326.69
2023-08-03T09:14:33.010Z,95316.53
2023-08-03T09:17:21.379Z,95313.17
2023-08-03T09:25:01.057Z,95281.78
2023-08-03T09:32:50.500Z,95286.83
2023-08-03T09:35:27.134Z,95278.26
2023-08-03T09:37:57.837Z,95276.24
2023-08-03T09:40:26.141Z,95271.43
2023-08-03T09:42:55.810Z,95270.27
2023-08-03T09:47:59.550Z,95307.08
2023-08-03T09:50:31.588Z,95306.81
2023-08-03T09:55:47.543Z,95316.23
2023-08-03T09:58:17.934Z,95307.23
2023-08-03T10:00:47.457Z,95292.20
2023-08-03T10:03:19.901Z,95274.51
2023-08-03T10:05:57.447Z,95257.15
2023-08-03T10:08:47.950Z,95245.52
2023-08-03T10:11:16.294Z,95275.59
2023-08-03T10:13:48.840Z,95258.13
2023-08-03T10:16:18.410Z,95269.75
2023-08-03T10:18:59.025Z,95279.58
2023-08-03T10:21:29.745Z,95277.54
2023-08-03T10:24:15.900Z,95281.66
2023-08-03T10:26:44.441Z,95274.56
2023-08-03T10:29:12.823Z,95261.23
2023-08-03T10:31:55.187Z,95297.05
2023-08-03T10:34:28.009Z,95316.90
2023-08-03T10:36:58.629Z,95324.35
2023-08-03T10:39:46.816Z,95331.09
2023-08-03T10:42:44.923Z,95342.08
2023-08-03T10:45:21.639Z,95339.78
2023-08-03T10:47:50.527Z,95334.14
2023-08-03T10:50:18.959Z,95307.00
2023-08-03T10:52:47.132Z,95297.61
2023-08-03T10:55:23.493Z,95319.70
2023-08-03T10:57:51.726Z,95327.11
2023-08-03T11:00:20.602Z,95320.75
2023-08-03T11:02:48.872Z,95308.27
2023-08-03T11:05:16.883Z,95314.40
2023-08-03T11:07:47.142Z,95307.98
2023-08-03T11:10:17.053Z,95307.02
2023-08-03T11:12:46.339Z,95297.42
2023-08-03T11:15:18.207Z,95306.78
2023-08-03T11:17:51.083Z,95313.95
2023-08-03T11:20:21.171Z,95310.18
2023-08-03T11:22:50.173Z,95310.39
2023-08-03T11:25:21.101Z,95334.30
2023-08-03T11:27:49.281Z,95336.54
2023-08-03T11:30:21.121Z,95346.67
2023-08-03T11:32:49.279Z,95349.08
2023-08-03T11:35:17.343Z,95352.30
2023-08-03T11:37:46.336Z,95347.98
2023-08-03T11:40:15.867Z,95346.45
2023-08-03T11:42:45.906Z,95343.38
2023-08-03T11:45:14.425Z,95335.83
2023-08-03T11:47:44.929Z,95306.91
2023-08-03T11:50:14.839Z,95341.59
2023-08-03T11:52:42.973Z,95351.05
2023-08-03T11:55:29.614Z,95357.11
2023-08-03T11:58:10.191Z,95355.16
2023-08-03T12:00:39.202Z,95352.28
2023-08-03T12:03:07.827Z,95344.05
2023-08-03T12:06:10.060Z,95331.77
2023-08-03T12:08:45.951Z,95310.42
2023-08-03T12:11:24.524Z,95322.48
2023-08-03T12:13:53.618Z,95327.18
2023-08-03T12:16:58.820Z,95338.21
2023-08-03T12:19:34.080Z,95336.55
2023-08-03T12:22:04.606Z,95344.91
2023-08-03T12:24:33.123Z,95354.95
2023-08-03T12:27:09.366Z,95339.05
2023-08-03T12:32:13.034Z,95337.71
2023-08-03T12:34:41.114Z,95334.05
2023-08-03T12:37:09.231Z,95332.48
2023-08-03T12:39:37.357Z,95346.46
2023-08-03T12:42:05.629Z,95352.27
2023-08-03T12:44:33.573Z,95359.08
2023-08-03T12:47:01.900Z,95361.58
2023-08-03T12:49:30.096Z,95355.83
2023-08-03T12:51:58.083Z,95357.38
2023-08-03T12:54:28.472Z,95351.02
2023-08-03T12:56:57.466Z,95371.85
2023-08-03T12:59:25.434Z,95380.27
2023-08-03T13:01:55.844Z,95381.15
2023-08-03T13:04:24.084Z,95381.41
2023-08-03T13:06:52.011Z,95371.30
2023-08-03T13:09:19.996Z,95375.08
2023-08-03T13:11:49.177Z,95383.84
2023-08-03T13:14:17.778Z,95385.38
2023-08-03T13:16:46.330Z,95373.50
2023-08-03T13:19:15.347Z,95350.75
2023-08-03T13:21:44.444Z,95351.00
2023-08-03T13:24:12.732Z,95338.19
2023-08-03T13:26:40.653Z,95304.81
2023-08-03T13:29:08.717Z,95298.84
2023-08-03T13:31:36.785Z,95321.73
2023-08-03T13:34:05.282Z,95320.08
2023-08-03T13:36:33.275Z,95329.41
2023-08-03T13:39:01.197Z,95353.64
2023-08-03T13:41:29.204Z,95351.42
2023-08-03T13:43:57.394Z,95363.98
2023-08-03T13:46:25.387Z,95363.42
2023-08-03T13:48:55.160Z,95357.89
2023-08-03T13:51:23.292Z,95365.48
2023-08-03T13:53:55.983Z,95401.36
2023-08-03T13:58:56.408Z,95372.91
2023-08-03T14:01:36.638Z,95354.31
2023-08-03T14:04:06.543Z,95338.92
2023-08-03T14:07:10.261Z,95398.92
2023-08-03T14:09:24.419Z,95399.98
2023-08-03T14:16:55.867Z,95365.77
2023-08-03T14:19:25.588Z,95407.43
2023-08-03T14:21:59.159Z,95426.06
2023-08-03T14:24:28.090Z,95396.33
2023-08-03T14:26:56.195Z,95401.77
2023-08-03T14:29:24.347Z,95415.73
2023-08-03T14:31:52.360Z,95378.38
2023-08-03T14:34:20.313Z,95395.45
2023-08-03T14:36:48.476Z,95420.30
2023-08-03T14:39:17.676Z,95431.45
2023-08-03T14:41:49.603Z,95425.56
2023-08-03T14:44:21.381Z,95414.27
2023-08-03T14:47:00.854Z,95410.79
2023-08-03T14:49:29.419Z,95409.54
2023-08-03T14:54:29.482Z,95413.29
2023-08-03T14:56:57.637Z,95422.96
2023-08-03T14:59:25.662Z,95418.38
2023-08-03T15:01:53.749Z,95416.69
2023-08-03T15:04:21.886Z,95416.83
2023-08-03T15:06:52.388Z,95421.09
2023-08-03T15:09:20.935Z,95394.06
2023-08-03T15:11:50.052Z,95418.62
2023-08-03T15:14:24.209Z,95414.59
2023-08-03T15:17:00.555Z,95426.84
2023-08-03T15:19:41.769Z,95432.18
2023-08-03T15:22:11.412Z,95423.14
2023-08-03T15:24:40.858Z,95419.91
2023-08-03T15:27:22.879Z,95413.13
2023-08-03T15:29:56.065Z,95376.02
2023-08-03T15:35:02.090Z,95403.94
2023-08-03T15:37:31.832Z,95387.82
2023-08-03T15:40:01.688Z,95405.42
2023-08-03T15:42:35.815Z,95410.39
2023-08-03T15:45:09.360Z,95411.04
2023-08-03T15:50:17.635Z,95405.39
2023-08-03T15:53:07.611Z,95408.14
2023-08-03T15:58:09.283Z,95420.48
2023-08-03T16:00:37.595Z,95422.26
2023-08-03T16:03:05.737Z,95428.38
2023-08-03T16:05:35.609Z,95426.91
2023-08-03T16:08:04.238Z,95435.33
2023-08-03T16:10:34.834Z,95440.34
2023-08-03T16:13:05.986Z,95441.81
2023-08-03T16:15:36.693Z,95439.47
2023-08-03T16:18:06.386Z,95432.79
2023-08-03T16:20:37.118Z,95420.58
2023-08-03T16:23:06.444Z,95413.52
2023-08-03T16:25:34.816Z,95428.19
2023-08-03T16:28:02.995Z,95422.33
2023-08-03T16:30:34.323Z,95432.30
2023-08-03T16:33:02.571Z,95431.17
2023-08-03T16:35:40.312Z,95414.70
2023-08-03T16:38:10.313Z,95436.60
2023-08-03T16:40:39.697Z,95419.84
2023-08-03T16:43:09.355Z,95413.14
2023-08-03T16:45:38.565Z,95435.02
2023-08-03T16:48:08.548Z,95430.20
2023-08-03T16:50:37.561Z,95409.52
2023-08-03T16:53:06.163Z,95420.60
2023-08-03T16:55:36.978Z,95433.53
2023-08-03T16:58:05.364Z,95439.06
2023-08-03T17:00:38.855Z,95440.02
2023-08-03T17:03:16.181Z,95442.52
2023-08-03T17:05:55.735Z,95436.48
2023-08-03T17:08:24.883Z,95430.04
2023-08-03T17:10:53.082Z,95422.09
2023-08-03T17:13:21.122Z,95423.69
2023-08-03T17:15:51.556Z,95422.23
2023-08-03T17:18:20.289Z,95420.14
2023-08-03T17:20:48.612Z,95423.75
2023-08-03T17:23:16.965Z,95435.20
2023-08-03T17:25:48.563Z,95437.84
2023-08-03T17:28:16.874Z,95435.45
2023-08-03T17:30:45.303Z,95439.05
2023-08-03T17:33:13.765Z,95438.95
2023-08-03T17:35:42.695Z,95430.64
2023-08-03T17:38:13.860Z,95428.36
2023-08-03T17:40:42.395Z,95432.27
2023-08-03T17:43:10.534Z,95435.70
2023-08-03T17:45:39.648Z,95434.42
2023-08-03T17:48:10.634Z,95428.07
2023-08-03T17:50:38.800Z,95428.60
2023-08-03T17:53:09.260Z,95426.57
2023-08-03T17:55:37.467Z,95432.90
2023-08-03T17:58:08.320Z,95437.79
2023-08-03T18:00:36.511Z,95434.73
2023-08-03T18:03:04.674Z,95438.65
2023-08-03T18:05:38.507Z,95447.92
2023-08-03T18:08:06.507Z,95451.05
2023-08-03T18:10:34.544Z,95451.65
2023-08-03T18:13:03.148Z,95452.55
2023-08-03T18:15:35.449Z,95454.64
2023-08-03T18:18:03.918Z,95454.91
2023-08-03T18:20:39.932Z,95453.51
2023-08-03T18:23:07.972Z,95458.61
2023-08-03T18:25:36.162Z,95467.31
2023-08-03T18:28:04.540Z,95468.63
2023-08-03T18:30:34.104Z,95469.41
2023-08-03T18:33:03.129Z,95479.13
2023-08-03T18:35:32.401Z,95483.48
2023-08-03T18:38:01.558Z,95492.55
2023-08-03T18:40:30.817Z,95497.86
2023-08-03T18:42:59.998Z,95501.63
2023-08-03T18:45:28.904Z,95493.89
2023-08-03T18:47:57.656Z,95492.45
2023-08-03T18:50:27.185Z,95487.38
2023-08-03T18:52:57.206Z,95491.81
2023-08-03T18:55:25.433Z,95496.48
2023-08-03T18:57:54.337Z,95495.04
2023-08-03T19:00:24.818Z,95501.72
2023-08-03T19:02:55.297Z,95509.14
2023-08-03T19:05:25.011Z,95507.67
2023-08-03T19:07:55.415Z,95517.22
2023-08-03T19:10:26.414Z,95523.08
2023-08-03T19:12:56.701Z,95524.27
2023-08-03T19:15:31.934Z,95523.89
2023-08-03T19:18:04.802Z,95528.02
2023-08-03T19:20:34.123Z,95545.09
2023-08-03T19:23:04.851Z,95549.72
2023-08-03T19:25:34.632Z,95550.45
2023-08-03T19:28:03.963Z,95559.83
2023-08-03T19:30:35.850Z,95558.77
2023-08-03T19:33:07.473Z,95559.04
2023-08-03T19:35:45.058Z,95558.47
2023-08-03T19:38:15.050Z,95562.64
2023-08-03T19:40:45.137Z,95565.60
2023-08-03T19:43:13.351Z,95564.89
2023-08-03T19:45:41.598Z,95573.89
2023-08-03T19:48:11.102Z,95571.78
2023-08-03T19:55:45.419Z,95574.79
2023-08-03T19:58:15.080Z,95577.34
2023-08-03T20:08:25.578Z,95572.23
2023-08-03T20:10:55.775Z,95572.35
2023-08-03T20:13:25.434Z,95578.54
2023-08-03T20:15:55.703Z,95583.79
2023-08-03T20:18:24.484Z,95584.16
2023-08-03T20:20:55.760Z,95584.83
2023-08-03T20:23:27.847Z,95586.89
2023-08-03T20:26:03.537Z,95584.29
2023-08-03T20:28:40.238Z,95587.02
2023-08-03T20:31:09.621Z,95588.29
2023-08-03T20:33:42.889Z,95588.44
2023-08-03T20:36:11.782Z,95584.73
2023-08-03T20:38:40.924Z,95588.65
2023-08-03T20:41:11.461Z,95589.16
2023-08-03T20:49:23.782Z,95584.41
2023-08-03T20:51:51.951Z,95590.98
2023-08-03T20:56:52.075Z,95598.05
2023-08-03T20:59:22.862Z,95601.45
2023-08-03T21:01:53.115Z,95602.98
2023-08-03T21:04:26.694Z,95608.30
2023-08-03T21:06:55.209Z,95612.91
2023-08-03T21:09:23.602Z,95604.69
2023-08-03T21:11:56.531Z,95602.53
2023-08-03T21:14:25.040Z,95603.91
2023-08-03T21:16:53.055Z,95605.53
2023-08-03T21:19:23.926Z,95607.36
2023-08-03T21:21:58.427Z,95607.21
2023-08-03T21:24:29.882Z,95611.86
2023-08-03T21:26:58.036Z,95615.33
2023-08-03T21:29:26.958Z,95621.09
2023-08-03T21:33:56.553Z,95624.34
2023-08-03T21:36:24.947Z,95627.20
2023-08-03T21:38:53.080Z,95629.23
2023-08-03T21:41:28.548Z,95628.64
2023-08-03T21:43:59.245Z,95633.40
2023-08-03T21:46:30.427Z,95637.98
2023-08-03T21:49:14.827Z,95637.34
2023-08-03T21:51:54.015Z,95634.31
2023-08-03T21:54:24.186Z,95635.17
2023-08-03T21:56:52.261Z,95635.65
2023-08-03T21:59:22.686Z,95634.04
2023-08-03T22:01:53.787Z,95634.05
2023-08-03T22:04:29.469Z,95630.77
2023-08-03T22:06:57.874Z,95643.12
2023-08-03T22:09:26.035Z,95650.22
2023-08-03T22:11:54.081Z,95647.27
2023-08-03T22:14:22.042Z,95649.90
2023-08-03T22:16:50.089Z,95649.14
2023-08-03T22:19:18.090Z,95650.88
2023-08-03T22:21:51.781Z,95651.70
2023-08-03T22:24:20.075Z,95654.66
2023-08-03T22:26:48.250Z,95653.20
2023-08-03T22:29:16.218Z,95653.14
2023-08-03T22:31:44.370Z,95651.69
2023-08-03T22:34:12.669Z,95650.73
2023-08-03T22:36:40.635Z,95650.86
2023-08-03T22:39:08.649Z,95648.45
2023-08-03T22:41:36.577Z,95645.46
2023-08-03T22:44:05.260Z,95644.67
2023-08-03T22:46:34.003Z,95641.19
2023-08-03T22:49:02.164Z,95635.27
2023-08-03T22:51:30.317Z,95643.13
2023-08-03T22:53:58.261Z,95647.88
2023-08-03T22:56:26.241Z,95646.07
2023-08-03T22:58:54.463Z,95644.36
2023-08-03T23:01:24.656Z,95645.14
2023-08-03T23:03:53.137Z,95644.70
2023-08-03T23:06:22.613Z,95644.14
2023-08-03T23:08:51.880Z,95641.06
2023-08-03T23:11:20.085Z,95642.95
2023-08-03T23:13:48.039Z,95643.84
2023-08-03T23:16:22.109Z,95639.39
2023-08-03T23:18:51.691Z,95640.84
2023-08-03T23:21:19.620Z,95636.73
2023-08-03T23:23:48.121Z,95639.55
2023-08-03T23:26:17.160Z,95646.44
2023-08-03T23:28:46.125Z,95640.09
2023-08-03T23:31:14.174Z,95635.19
2023-08-03T23:33:42.325Z,95633.79
2023-08-03T23:36:10.559Z,95636.71
2023-08-03T23:38:38.644Z,95640.77
2023-08-03T23:41:06.776Z,95636.23
2023-08-03T23:43:34.766Z,95635.98
2023-08-03T23:46:02.889Z,95632.03
2023-08-03T23:48:30.929Z,95633.77
2023-08-03T23:50:58.957Z,95633.52
2023-08-03T23:53:27.009Z,95632.61
2023-08-03T23:55:54.939Z,95630.66
2023-08-03T23:58:22.977Z,95631.55
